Time;durP1;ratioP1;P1;durP2;ratioP2;P2;SDS_P1;SDS_P2;PMS_P1;PMS_P2;Temp;Humidity;BMP_temperature;BMP_pressure;BME280_temperature;BME280_humidity;BME280_pressure;Samples;Min_cycle;Max_cycle;Signal;HPM_P1;HPM_P2
2022/06/12 00:00:30;;;;;;;3.55;2.13;;;16.40;99.90;;;;;;5089065;28;20032;-81
2022/06/12 00:02:58;;;;;;;4.47;3.00;;;16.40;99.90;;;;;;5081136;28;20059;-81
2022/06/12 00:05:26;;;;;;;4.88;2.95;;;16.30;99.90;;;;;;5080910;28;20024;-81
2022/06/12 00:07:51;;;;;;;6.10;3.08;;;16.30;99.90;;;;;;5090897;28;20023;-81
2022/06/12 00:10:17;;;;;;;5.60;3.03;;;16.30;99.90;;;;;;5077676;28;20032;-81
2022/06/12 00:12:45;;;;;;;5.93;3.75;;;16.30;99.90;;;;;;5088479;28;20554;-81
2022/06/12 00:15:15;;;;;;;6.03;3.20;;;16.30;99.90;;;;;;5087616;28;20074;-80
2022/06/12 00:17:43;;;;;;;6.65;3.22;;;16.30;99.90;;;;;;5084921;28;20107;-81
2022/06/12 00:20:11;;;;;;;5.07;3.08;;;16.30;99.90;;;;;;5079171;28;20024;-81
2022/06/12 00:22:37;;;;;;;6.25;3.65;;;16.20;99.90;;;;;;5076193;28;20082;-80
2022/06/12 00:25:04;;;;;;;5.30;3.20;;;16.20;99.90;;;;;;5085782;28;20494;-81
2022/06/12 00:27:29;;;;;;;7.75;4.03;;;16.20;99.90;;;;;;5079356;28;20036;-80
2022/06/12 00:29:56;;;;;;;4.38;3.35;;;16.20;99.90;;;;;;5083803;28;20029;-81
2022/06/12 00:32:24;;;;;;;6.10;3.78;;;16.20;99.90;;;;;;5079158;28;20107;-81
2022/06/12 00:34:52;;;;;;;5.25;3.42;;;16.10;99.90;;;;;;5077159;28;20020;-81
2022/06/12 00:37:21;;;;;;;6.50;3.47;;;16.10;99.90;;;;;;5087577;28;20123;-80
2022/06/12 00:39:50;;;;;;;4.53;3.58;;;16.10;99.90;;;;;;5083915;28;20085;-80
2022/06/12 00:42:41;;;;;;;5.15;2.97;;;16.10;99.90;;;;;;5088022;28;20074;-81
2022/06/12 00:45:38;;;;;;;5.65;3.33;;;16.00;99.90;;;;;;5075935;28;20032;-80
2022/06/12 00:48:20;;;;;;;5.82;3.15;;;16.00;99.90;;;;;;5080290;28;20547;-80
2022/06/12 00:50:57;;;;;;;4.97;3.17;;;15.90;99.90;;;;;;5083406;28;20451;-80
2022/06/12 00:53:28;;;;;;;6.50;3.28;;;15.90;99.90;;;;;;5083953;28;20039;-81
2022/06/12 00:55:59;;;;;;;4.57;3.28;;;15.90;99.90;;;;;;5089239;28;20475;-80
2022/06/12 00:58:29;;;;;;;5.93;3.20;;;15.90;99.90;;;;;;5087361;28;20071;-80
2022/06/12 01:00:55;;;;;;;6.10;3.40;;;15.90;99.90;;;;;;5082514;28;20094;-80
2022/06/12 01:03:21;;;;;;;5.20;2.75;;;15.80;99.90;;;;;;5088706;28;20028;-80
2022/06/12 01:08:32;;;;;;;5.45;3.10;;;15.80;99.90;;;;;;5086004;28;20101;-81
2022/06/12 01:11:01;;;;;;;6.63;3.35;;;15.80;99.90;;;;;;5082927;28;20020;-80
2022/06/12 01:13:32;;;;;;;5.63;3.33;;;15.80;99.90;;;;;;5087305;28;20046;-80
2022/06/12 01:16:01;;;;;;;5.38;2.92;;;15.80;99.90;;;;;;5077497;28;20031;-80
2022/06/12 01:18:35;;;;;;;4.72;2.85;;;15.70;99.90;;;;;;5078410;28;20061;-81
2022/06/12 01:21:34;;;;;;;4.57;3.15;;;15.70;99.90;;;;;;5078091;28;20039;-81
2022/06/12 01:24:16;;;;;;;4.63;3.42;;;15.70;99.90;;;;;;5084956;28;20084;-80
2022/06/12 01:27:14;;;;;;;16.90;3.15;;;15.70;99.90;;;;;;5072124;28;20039;-81
2022/06/12 01:29:48;;;;;;;4.13;2.50;;;15.70;99.90;;;;;;5070271;28;20043;-81
2022/06/12 01:32:21;;;;;;;5.68;3.08;;;15.70;99.90;;;;;;5080493;28;20025;-80
2022/06/12 01:34:56;;;;;;;2.85;2.05;;;15.60;99.90;;;;;;5084262;28;20031;-80
2022/06/12 01:37:40;;;;;;;4.53;2.33;;;15.60;99.90;;;;;;5084688;28;20501;-80
2022/06/12 01:40:39;;;;;;;7.78;2.70;;;15.60;99.90;;;;;;5083508;28;20035;-80
2022/06/12 01:43:35;;;;;;;3.53;2.50;;;15.60;99.90;;;;;;5082910;28;20106;-80
2022/06/12 01:46:16;;;;;;;5.35;2.63;;;15.60;99.90;;;;;;5080169;28;20024;-80
2022/06/12 01:48:55;;;;;;;4.18;2.72;;;15.60;99.90;;;;;;5089569;28;20024;-80
2022/06/12 01:51:35;;;;;;;3.70;2.13;;;15.60;99.90;;;;;;5089771;28;20039;-79
2022/06/12 01:54:09;;;;;;;3.80;2.70;;;15.60;99.90;;;;;;5086297;28;20043;-80
2022/06/12 01:56:42;;;;;;;3.85;2.80;;;15.50;99.90;;;;;;5085646;28;20040;-80
2022/06/12 01:59:49;;;;;;;4.15;2.55;;;15.50;99.90;;;;;;5079506;28;20031;-80
2022/06/12 02:02:34;;;;;;;2.70;2.17;;;15.50;99.90;;;;;;5086228;28;20547;-80
2022/06/12 02:05:13;;;;;;;4.05;2.08;;;15.50;99.90;;;;;;5072279;28;20025;-81
2022/06/12 02:07:47;;;;;;;3.92;2.70;;;15.50;99.90;;;;;;5087583;28;20082;-80
2022/06/12 02:10:23;;;;;;;4.47;2.60;;;15.50;99.90;;;;;;5087689;28;20067;-80
2022/06/12 02:13:12;;;;;;;3.33;2.42;;;15.50;99.90;;;;;;5084976;28;20081;-81
2022/06/12 02:15:44;;;;;;;6.57;1.80;;;15.60;99.90;;;;;;5081407;28;20020;-80
2022/06/12 02:18:33;;;;;;;3.30;2.22;;;15.70;99.90;;;;;;5083160;28;20028;-80
2022/06/12 02:21:25;;;;;;;3.83;2.33;;;15.80;99.90;;;;;;5080761;28;20024;-80
2022/06/12 02:23:53;;;;;;;;;;;15.90;99.90;;;;;;5076357;28;20090;-80
2022/06/12 02:26:24;;;;;;;4.32;2.25;;;15.90;99.90;;;;;;5087272;28;19913;-81
2022/06/12 02:28:58;;;;;;;6.60;2.95;;;16.00;99.90;;;;;;5067941;28;20028;-80
2022/06/12 02:31:29;;;;;;;3.95;2.53;;;16.00;99.90;;;;;;5073394;28;20049;-80
2022/06/12 02:34:00;;;;;;;4.35;3.13;;;16.10;99.90;;;;;;5072077;28;20115;-80
2022/06/12 02:36:31;;;;;;;3.43;2.20;;;16.10;99.90;;;;;;5082065;28;20431;-80
2022/06/12 02:39:10;;;;;;;3.28;2.10;;;16.20;99.90;;;;;;5080355;28;20366;-80
2022/06/12 02:41:44;;;;;;;5.07;2.35;;;16.20;99.90;;;;;;5090796;28;20122;-80
2022/06/12 02:44:17;;;;;;;4.32;2.35;;;16.30;99.90;;;;;;5091247;28;20059;-80
2022/06/12 02:46:49;;;;;;;4.22;2.75;;;16.40;99.90;;;;;;5084101;28;20032;-79
2022/06/12 02:49:15;;;;;;;3.10;2.05;;;16.40;99.90;;;;;;5079521;28;20031;-79
2022/06/12 02:51:57;;;;;;;13.70;2.53;;;16.50;99.90;;;;;;5054623;28;20074;-80
2022/06/12 02:54:38;;;;;;;4.07;2.13;;;16.50;99.90;;;;;;5074147;28;20377;-80
2022/06/12 02:57:30;;;;;;;2.75;2.10;;;16.60;99.90;;;;;;5059205;28;20047;-81
2022/06/12 03:00:11;;;;;;;4.30;2.47;;;16.70;99.90;;;;;;5071954;28;20046;-81
2022/06/12 03:03:04;;;;;;;5.10;2.65;;;16.70;99.90;;;;;;5065163;28;20029;-80
2022/06/12 03:05:33;;;;;;;3.90;2.65;;;16.70;99.90;;;;;;5054935;28;20535;-81
2022/06/12 03:08:03;;;;;;;3.05;2.05;;;16.80;99.90;;;;;;5075820;28;20124;-79
2022/06/12 03:10:34;;;;;;;2.97;2.17;;;16.80;99.90;;;;;;5080248;28;20025;-79
2022/06/12 03:13:02;;;;;;;3.50;2.60;;;16.90;99.90;;;;;;5075578;28;20024;-79
2022/06/12 03:15:40;;;;;;;4.57;1.95;;;16.90;99.90;;;;;;5067651;28;20479;-79
2022/06/12 03:18:09;;;;;;;4.38;2.60;;;16.90;99.90;;;;;;5059237;28;20041;-79
2022/06/12 03:20:54;;;;;;;3.97;2.67;;;16.80;99.90;;;;;;5071852;28;20033;-79
2022/06/12 03:23:38;;;;;;;6.50;2.38;;;16.80;99.90;;;;;;5054571;28;20044;-79
2022/06/12 03:26:08;;;;;;;2.90;2.25;;;16.90;99.90;;;;;;5074198;28;20044;-78
2022/06/12 03:29:02;;;;;;;3.83;2.47;;;16.90;99.90;;;;;;5073425;28;20020;-78
2022/06/12 03:31:40;;;;;;;8.73;2.70;;;17.00;99.90;;;;;;5073672;28;20028;-79
2022/06/12 03:34:43;;;;;;;4.22;2.17;;;17.00;99.90;;;;;;5070165;28;20024;-79
2022/06/12 03:37:17;;;;;;;3.08;2.40;;;17.10;99.90;;;;;;5073104;28;20378;-79
2022/06/12 03:39:56;;;;;;;3.00;2.15;;;17.10;99.90;;;;;;5073935;28;20030;-79
2022/06/12 03:42:48;;;;;;;3.28;2.20;;;17.10;99.90;;;;;;5080288;28;20482;-79
2022/06/12 03:45:24;;;;;;;3.17;2.15;;;17.10;99.90;;;;;;5086296;28;20043;-79
2022/06/12 03:48:06;;;;;;;4.60;2.63;;;17.10;99.90;;;;;;5068486;28;20016;-79
2022/06/12 03:50:36;;;;;;;4.00;2.58;;;17.10;99.90;;;;;;5063404;28;20055;-79
2022/06/12 03:53:18;;;;;;;4.13;2.38;;;17.10;99.90;;;;;;5073299;28;20052;-78
2022/06/12 03:58:53;;;;;;;3.33;2.35;;;17.10;99.90;;;;;;5058968;28;20124;-80
2022/06/12 04:01:19;;;;;;;5.15;2.75;;;17.10;99.90;;;;;;5073672;28;20127;-80
2022/06/12 04:03:46;;;;;;;5.63;3.65;;;17.00;99.90;;;;;;5080637;28;20044;-80
2022/06/12 04:06:18;;;;;;;3.72;2.50;;;17.00;99.90;;;;;;5082110;28;20028;-80
2022/06/12 04:08:48;;;;;;;3.15;2.25;;;17.00;99.90;;;;;;5073417;28;20741;-80
2022/06/12 04:11:17;;;;;;;4.22;2.75;;;16.90;99.90;;;;;;5064601;28;20025;-80
2022/06/12 04:13:44;;;;;;;3.13;2.40;;;17.00;99.90;;;;;;5069134;28;20025;-80
2022/06/12 04:16:30;;;;;;;4.43;2.28;;;17.00;99.90;;;;;;5076010;28;20077;-79
2022/06/12 04:18:57;;;;;;;4.85;2.67;;;17.10;99.90;;;;;;5070048;28;20024;-80
2022/06/12 04:21:22;;;;;;;3.72;2.45;;;17.20;99.90;;;;;;5065408;28;20095;-80
2022/06/12 04:24:08;;;;;;;3.83;2.63;;;17.30;99.90;;;;;;5065565;28;20031;-80
2022/06/12 04:27:26;;;;;;;5.53;3.65;;;17.40;99.90;;;;;;5077770;28;20028;-79
2022/06/12 04:29:55;;;;;;;6.30;2.90;;;17.50;99.90;;;;;;5018781;28;20091;-79
2022/06/12 04:32:21;;;;;;;7.13;3.15;;;17.60;99.90;;;;;;5018120;28;20444;-80
2022/06/12 04:34:47;;;;;;;4.15;2.70;;;17.60;99.90;;;;;;5049229;28;20028;-80
2022/06/12 04:37:17;;;;;;;3.45;2.70;;;17.60;99.90;;;;;;5064758;28;20115;-79
2022/06/12 04:39:44;;;;;;;6.53;3.60;;;17.60;99.90;;;;;;5064306;28;20031;-79
2022/06/12 04:42:12;;;;;;;4.35;2.92;;;17.70;99.90;;;;;;5073424;28;20028;-80
2022/06/12 04:44:38;;;;;;;4.07;2.83;;;17.70;99.90;;;;;;5069997;28;20036;-79
2022/06/12 04:47:04;;;;;;;4.30;2.90;;;17.80;99.90;;;;;;5059580;28;20399;-79
2022/06/12 04:49:34;;;;;;;5.55;2.50;;;17.70;99.90;;;;;;5069775;28;20029;-80
2022/06/12 04:52:03;;;;;;;5.82;2.55;;;17.80;99.90;;;;;;5075172;28;20473;-80
2022/06/12 04:54:30;;;;;;;4.10;2.83;;;17.90;99.90;;;;;;5071029;28;20134;-80
2022/06/12 04:56:57;;;;;;;5.90;3.25;;;17.90;99.90;;;;;;5084960;28;20047;-79
2022/06/12 04:59:22;;;;;;;5.07;3.55;;;17.80;99.90;;;;;;5076565;28;20070;-80
2022/06/12 05:01:48;;;;;;;4.25;2.85;;;17.80;99.90;;;;;;5086260;28;20486;-80
2022/06/12 05:04:15;;;;;;;4.35;3.17;;;17.90;99.90;;;;;;5081676;28;20368;-80
2022/06/12 05:06:42;;;;;;;5.93;3.50;;;18.00;99.90;;;;;;5085853;28;20085;-80
2022/06/12 05:09:10;;;;;;;9.55;3.65;;;18.10;99.90;;;;;;5084793;28;20482;-80
2022/06/12 05:11:35;;;;;;;4.47;2.92;;;18.20;99.90;;;;;;5079825;28;20078;-80
2022/06/12 05:14:01;;;;;;;4.72;3.05;;;18.20;99.90;;;;;;5073637;28;20020;-80
2022/06/12 05:16:34;;;;;;;3.85;3.10;;;18.00;99.90;;;;;;5083917;28;20059;-80
2022/06/12 05:19:00;;;;;;;5.03;3.35;;;18.10;99.90;;;;;;5076369;28;20089;-81
2022/06/12 05:21:28;;;;;;;5.55;3.30;;;18.30;99.90;;;;;;5086856;28;20360;-80
2022/06/12 05:23:54;;;;;;;5.40;3.42;;;18.50;99.90;;;;;;5083682;28;20541;-80
2022/06/12 05:26:21;;;;;;;6.18;3.53;;;18.70;99.90;;;;;;5072095;28;20041;-80
2022/06/12 05:28:47;;;;;;;5.47;3.00;;;18.70;99.90;;;;;;5088998;28;20024;-80
2022/06/12 05:31:13;;;;;;;3.65;2.85;;;18.70;99.90;;;;;;5075801;28;20443;-80
2022/06/12 05:33:39;;;;;;;3.92;2.75;;;18.70;99.90;;;;;;5077954;28;20033;-80
2022/06/12 05:36:06;;;;;;;5.32;3.20;;;18.70;99.90;;;;;;5083295;28;20462;-80
2022/06/12 05:38:32;;;;;;;4.88;3.00;;;18.70;99.90;;;;;;5082328;28;20039;-80
2022/06/12 05:40:58;;;;;;;5.50;3.40;;;18.70;99.90;;;;;;5086318;28;20665;-80
2022/06/12 05:43:23;;;;;;;4.35;3.15;;;18.70;99.90;;;;;;5072709;28;20028;-79
2022/06/12 05:45:49;;;;;;;4.22;2.97;;;18.70;99.90;;;;;;5081270;28;20030;-80
2022/06/12 05:48:18;;;;;;;3.90;2.97;;;18.60;99.90;;;;;;5085290;28;20470;-80
2022/06/12 05:50:59;;;;;;;4.90;3.50;;;18.60;99.90;;;;;;5086526;28;20054;-80
2022/06/12 05:53:26;;;;;;;4.70;3.60;;;18.70;99.90;;;;;;5085109;28;20016;-80
2022/06/12 05:55:54;;;;;;;4.88;3.22;;;18.90;99.90;;;;;;5085817;28;20394;-80
2022/06/12 05:58:21;;;;;;;4.95;3.00;;;18.90;99.90;;;;;;5079866;28;20453;-80
2022/06/12 06:00:48;;;;;;;3.83;2.83;;;19.00;99.90;;;;;;5085909;28;20028;-80
2022/06/12 06:03:13;;;;;;;4.28;3.33;;;18.90;99.90;;;;;;5086835;28;20058;-80
2022/06/12 06:05:41;;;;;;;5.07;3.47;;;18.70;99.90;;;;;;5076622;28;20024;-80
2022/06/12 06:08:08;;;;;;;8.43;2.80;;;18.80;99.90;;;;;;5085392;28;20016;-80
2022/06/12 06:10:34;;;;;;;6.07;3.42;;;19.00;99.90;;;;;;5086804;28;21799;-80
2022/06/12 06:13:00;;;;;;;6.85;4.25;;;19.20;99.90;;;;;;5083488;28;20025;-80
2022/06/12 06:15:26;;;;;;;5.85;3.85;;;19.10;99.90;;;;;;5080919;28;20036;-80
2022/06/12 06:17:52;;;;;;;5.00;3.70;;;19.10;99.90;;;;;;5093580;28;20028;-79
2022/06/12 06:20:27;;;;;;;4.53;3.35;;;19.10;99.90;;;;;;5086913;28;20028;-79
2022/06/12 06:22:53;;;;;;;6.05;3.47;;;18.80;99.90;;;;;;5079967;28;20052;-79
2022/06/12 06:25:19;;;;;;;4.22;3.35;;;18.70;99.90;;;;;;5083549;28;20108;-79
2022/06/12 06:27:45;;;;;;;4.47;3.13;;;18.90;99.90;;;;;;5075225;28;20402;-79
2022/06/12 06:30:12;;;;;;;4.35;2.80;;;19.20;99.90;;;;;;5083873;28;20036;-80
2022/06/12 06:32:37;;;;;;;6.20;3.28;;;19.50;99.90;;;;;;5078131;28;20025;-79
2022/06/12 06:35:04;;;;;;;4.30;3.25;;;19.70;99.90;;;;;;5079593;28;20017;-79
2022/06/12 06:37:31;;;;;;;4.05;3.00;;;19.80;99.90;;;;;;5081508;28;20086;-79
2022/06/12 06:39:57;;;;;;;4.32;2.78;;;19.90;99.90;;;;;;5084307;28;20486;-79
2022/06/12 06:42:23;;;;;;;5.85;2.85;;;19.90;99.90;;;;;;5088467;28;20024;-79
2022/06/12 06:47:35;;;;;;;5.57;3.40;;;19.80;99.90;;;;;;5088226;28;20070;-80
2022/06/12 06:50:01;;;;;;;5.20;3.70;;;19.80;99.90;;;;;;5084000;28;20036;-79
2022/06/12 06:52:27;;;;;;;4.05;2.85;;;20.00;99.90;;;;;;5081659;28;20021;-79
2022/06/12 06:54:52;;;;;;;5.30;3.65;;;20.30;99.90;;;;;;5081821;28;20182;-80
2022/06/12 06:57:18;;;;;;;5.75;3.22;;;20.50;99.90;;;;;;5068016;28;20024;-79
2022/06/12 06:59:43;;;;;;;4.57;3.30;;;20.40;99.90;;;;;;5086470;28;20021;-79
2022/06/12 07:02:10;;;;;;;4.70;3.40;;;20.50;99.90;;;;;;5087987;28;20028;-79
2022/06/12 07:04:36;;;;;;;3.78;2.97;;;20.80;99.90;;;;;;5078615;28;20058;-79
2022/06/12 07:07:02;;;;;;;8.02;3.15;;;20.80;99.90;;;;;;5090631;28;20032;-79
2022/06/12 07:09:28;;;;;;;4.43;3.28;;;21.00;99.90;;;;;;5086877;28;20031;-79
2022/06/12 07:11:53;;;;;;;3.83;2.95;;;21.00;99.90;;;;;;5082680;28;20066;-79
2022/06/12 07:14:19;;;;;;;4.05;2.88;;;20.90;99.90;;;;;;5090611;28;20561;-79
2022/06/12 07:16:44;;;;;;;2.85;2.30;;;20.60;99.90;;;;;;5087426;28;20034;-79
2022/06/12 07:19:10;;;;;;;4.10;2.35;;;20.60;99.90;;;;;;5084513;28;20030;-80
2022/06/12 07:21:35;;;;;;;4.93;2.70;;;20.50;99.90;;;;;;5087445;28;20119;-79
2022/06/12 07:24:01;;;;;;;6.40;3.40;;;20.50;99.90;;;;;;5086149;28;20532;-79
2022/06/12 07:26:33;;;;;;;3.25;2.45;;;20.60;99.90;;;;;;5074974;28;20019;-79
2022/06/12 07:28:58;;;;;;;3.25;2.47;;;20.30;99.90;;;;;;5075049;28;20163;-79
2022/06/12 07:31:25;;;;;;;3.70;2.60;;;20.20;99.90;;;;;;5084963;28;20024;-79
2022/06/12 07:33:51;;;;;;;2.45;2.25;;;20.20;99.90;;;;;;5078061;28;20025;-79
2022/06/12 07:36:18;;;;;;;3.33;2.50;;;20.40;99.90;;;;;;5086127;28;20024;-79
2022/06/12 07:38:46;;;;;;;2.53;2.22;;;20.60;99.90;;;;;;5083375;28;20024;-79
2022/06/12 07:41:12;;;;;;;3.10;2.55;;;20.80;99.90;;;;;;5073454;28;20478;-79
2022/06/12 07:43:39;;;;;;;3.53;2.35;;;20.60;99.90;;;;;;5080952;28;20052;-79
2022/06/12 07:46:09;;;;;;;3.65;2.70;;;20.50;99.90;;;;;;5086250;28;20024;-79
2022/06/12 07:48:35;;;;;;;5.03;2.40;;;20.70;99.90;;;;;;5087647;28;20414;-79
2022/06/12 07:51:04;;;;;;;3.22;2.45;;;20.60;99.90;;;;;;5085117;28;20051;-79
2022/06/12 07:53:31;;;;;;;3.83;2.42;;;20.70;99.90;;;;;;5088395;28;20032;-79
2022/06/12 07:55:58;;;;;;;2.60;1.92;;;21.00;99.90;;;;;;5090393;28;20028;-81
2022/06/12 07:58:24;;;;;;;3.28;2.17;;;21.00;99.90;;;;;;5084696;28;20033;-78
2022/06/12 08:00:53;;;;;;;4.72;2.28;;;21.20;99.90;;;;;;5084419;28;20121;-84
2022/06/12 08:03:20;;;;;;;2.47;1.90;;;21.40;99.90;;;;;;5083384;28;20470;-80
2022/06/12 08:05:45;;;;;;;3.70;2.50;;;21.50;99.90;;;;;;5083470;28;20035;-80
2022/06/12 08:08:10;;;;;;;2.40;2.00;;;21.70;99.90;;;;;;5098571;28;20028;-80
2022/06/12 08:10:36;;;;;;;4.93;1.98;;;21.90;99.90;;;;;;5082591;28;20378;-79
2022/06/12 08:13:07;;;;;;;2.78;2.20;;;22.10;99.90;;;;;;5080533;28;20024;-77
2022/06/12 08:15:34;;;;;;;2.17;1.98;;;22.30;99.90;;;;;;5084777;28;20475;-79
2022/06/12 08:18:00;;;;;;;3.88;2.17;;;22.60;99.90;;;;;;5080603;28;20024;-81
2022/06/12 08:20:28;;;;;;;3.47;2.13;;;22.80;99.90;;;;;;5088958;28;20073;-85
2022/06/12 08:23:26;;;;;;;3.50;2.38;;;23.00;99.90;;;;;;5090933;28;20402;-90
2022/06/12 08:25:53;;;;;;;2.85;2.28;;;22.90;99.90;;;;;;5082547;28;20028;-93
2022/06/12 08:28:18;;;;;;;3.83;2.10;;;22.70;99.90;;;;;;5088847;28;20028;-92
2022/06/12 08:30:43;;;;;;;2.55;1.90;;;22.90;99.90;;;;;;5083399;28;20020;-92
2022/06/12 08:33:09;;;;;;;4.18;2.40;;;23.00;99.90;;;;;;5089787;28;20582;-90
2022/06/12 08:35:36;;;;;;;4.25;2.50;;;23.00;99.90;;;;;;5088135;28;20101;-93
2022/06/12 08:38:01;;;;;;;6.72;2.50;;;23.00;99.90;;;;;;5090949;28;20078;-91
2022/06/12 08:40:32;;;;;;;2.80;2.30;;;23.00;99.90;;;;;;5089379;28;20032;-92
2022/06/12 08:43:23;;;;;;;5.93;2.53;;;23.30;99.90;;;;;;5078611;28;20028;-90
2022/06/12 08:45:51;;;;;;;2.95;2.33;;;23.40;96.30;;;;;;5086444;28;20549;-91
2022/06/12 08:48:19;;;;;;;2.60;2.10;;;23.20;98.60;;;;;;5081550;28;20029;-91
2022/06/12 08:51:04;;;;;;;12.60;2.53;;;23.40;96.00;;;;;;5081517;28;20048;-87
2022/06/12 08:54:01;;;;;;;2.30;1.98;;;23.50;97.00;;;;;;5071126;28;20024;-89
2022/06/12 08:56:42;;;;;;;2.25;1.73;;;23.60;96.40;;;;;;5077455;28;20111;-90
2022/06/12 08:59:26;;;;;;;3.17;1.92;;;23.70;95.90;;;;;;5079037;28;20043;-90
2022/06/12 09:01:51;;;;;;;8.55;1.90;;;23.70;99.40;;;;;;5077508;28;20112;-85
2022/06/12 09:04:20;;;;;;;1.95;1.63;;;23.60;97.70;;;;;;5078572;28;20111;-86
2022/06/12 09:07:12;;;;;;;3.75;2.00;;;23.50;96.00;;;;;;5093822;28;20031;-87
2022/06/12 09:09:54;;;;;;;2.83;1.38;;;23.60;94.20;;;;;;5082686;28;20108;-82
2022/06/12 09:12:36;;;;;;;1.58;1.27;;;23.70;91.20;;;;;;5087335;28;20043;-88
2022/06/12 09:15:37;;;;;;;1.90;1.00;;;24.10;91.80;;;;;;5084914;28;20028;-84
2022/06/12 09:18:27;;;;;;;1.20;1.10;;;23.90;83.20;;;;;;5081721;28;20024;-82
2022/06/12 09:21:27;;;;;;;1.50;1.10;;;24.20;85.60;;;;;;5089609;28;20035;-86
2022/06/12 09:24:27;;;;;;;1.83;1.40;;;24.30;80.30;;;;;;5089199;28;20024;-84
2022/06/12 09:27:16;;;;;;;3.03;1.63;;;23.60;82.00;;;;;;5080236;28;20039;-85
2022/06/12 09:29:55;;;;;;;1.83;1.38;;;23.30;86.70;;;;;;5075369;28;20765;-84
2022/06/12 09:32:35;;;;;;;4.60;1.25;;;23.40;82.60;;;;;;5084023;28;20039;-89
2022/06/12 09:35:01;;;;;;;2.30;1.75;;;23.10;83.60;;;;;;5083690;28;20486;-89
2022/06/12 09:38:18;;;;;;;1.83;1.42;;;22.90;86.10;;;;;;5079436;28;20032;-82
2022/06/12 09:41:04;;;;;;;1.60;1.40;;;22.90;88.10;;;;;;5080286;28;20197;-86
2022/06/12 09:43:54;;;;;;;2.63;1.50;;;22.80;90.00;;;;;;5077477;28;20032;-83
2022/06/12 09:46:30;;;;;;;2.35;1.50;;;23.30;90.20;;;;;;5083158;28;20101;-85
2022/06/12 09:49:08;;;;;;;1.40;1.30;;;23.40;86.20;;;;;;5091764;28;20012;-83
2022/06/12 09:51:58;;;;;;;1.75;1.27;;;23.40;85.50;;;;;;5080711;28;20119;-89
2022/06/12 09:54:40;;;;;;;6.50;2.17;;;23.60;84.00;;;;;;5085737;28;20052;-84
2022/06/12 09:57:43;;;;;;;1.67;1.20;;;23.80;79.80;;;;;;5088380;28;20040;-87
2022/06/12 10:00:21;;;;;;;6.47;1.75;;;23.90;80.00;;;;;;5087188;28;20237;-86
2022/06/12 10:03:19;;;;;;;1.80;1.33;;;24.10;76.80;;;;;;5087997;28;20020;-82
2022/06/12 10:06:23;;;;;;;1.80;1.33;;;24.30;77.80;;;;;;5093046;28;20103;-83
2022/06/12 10:09:01;;;;;;;1.35;1.10;;;24.40;79.30;;;;;;5050151;28;20048;-83
2022/06/12 10:11:42;;;;;;;3.95;1.40;;;24.90;79.00;;;;;;5083738;28;20438;-81
2022/06/12 10:14:21;;;;;;;3.22;1.33;;;24.60;75.50;;;;;;5082369;28;20372;-80
2022/06/12 10:17:03;;;;;;;3.85;1.45;;;24.70;76.20;;;;;;5092344;28;20024;-80
2022/06/12 10:19:41;;;;;;;3.42;0.98;;;24.60;79.60;;;;;;5087051;28;20713;-80
2022/06/12 10:22:22;;;;;;;2.05;1.17;;;24.50;74.80;;;;;;5073887;28;20020;-81
2022/06/12 10:24:48;;;;;;;1.05;0.93;;;24.30;74.90;;;;;;5072340;28;20032;-81
2022/06/12 10:27:17;;;;;;;3.05;1.00;;;24.30;77.40;;;;;;5081893;28;20032;-80
2022/06/12 10:29:54;;;;;;;1.25;1.10;;;24.50;70.20;;;;;;5088446;28;20024;-87
2022/06/12 10:32:27;;;;;;;2.20;1.20;;;24.70;68.10;;;;;;5092670;28;20041;-81
2022/06/12 10:35:14;;;;;;;2.28;1.63;;;24.90;66.80;;;;;;5083328;28;20391;-83
2022/06/12 10:37:40;;;;;;;2.17;0.95;;;24.50;64.90;;;;;;5083700;28;20103;-81
2022/06/12 10:40:16;;;;;;;1.02;0.90;;;24.10;65.70;;;;;;5084885;28;20089;-80
2022/06/12 10:43:08;;;;;;;3.35;0.95;;;24.20;67.50;;;;;;5082237;28;20032;-78
2022/06/12 10:45:37;;;;;;;0.70;0.70;;;24.70;65.30;;;;;;5073373;28;20025;-79
2022/06/12 10:48:21;;;;;;;2.08;0.82;;;24.70;61.60;;;;;;5081230;28;20502;-79
2022/06/12 10:50:54;;;;;;;0.80;0.80;;;24.70;63.30;;;;;;5073677;28;20070;-79
2022/06/12 10:53:26;;;;;;;1.30;0.80;;;24.90;61.00;;;;;;5076787;28;20040;-78
2022/06/12 10:56:32;;;;;;;1.40;0.90;;;24.70;60.70;;;;;;5084181;28;20114;-80
2022/06/12 10:59:21;;;;;;;0.90;0.90;;;24.90;61.70;;;;;;5045166;28;20042;-80
2022/06/12 11:02:12;;;;;;;2.03;1.50;;;25.00;59.90;;;;;;5088777;28;20475;-80
2022/06/12 11:05:08;;;;;;;3.30;1.55;;;25.40;60.30;;;;;;5090792;28;20031;-79
2022/06/12 11:07:56;;;;;;;1.33;1.08;;;25.90;59.80;;;;;;5086259;28;20033;-83
2022/06/12 11:10:27;;;;;;;3.60;1.13;;;26.10;59.90;;;;;;5093219;28;20028;-79
2022/06/12 11:13:08;;;;;;;2.25;0.68;;;26.10;61.10;;;;;;5085275;28;20107;-82
2022/06/12 11:15:43;;;;;;;2.58;1.27;;;25.60;57.90;;;;;;5081796;28;20092;-80
2022/06/12 11:18:34;;;;;;;1.13;0.80;;;25.60;59.00;;;;;;5076624;28;20029;-79
2022/06/12 11:21:30;;;;;;;1.20;1.03;;;25.90;60.70;;;;;;5079229;28;20024;-77
2022/06/12 11:24:20;;;;;;;4.38;1.08;;;25.90;58.10;;;;;;5079474;28;20042;-84
2022/06/12 11:27:07;;;;;;;1.02;0.82;;;25.60;57.90;;;;;;5084695;28;20032;-81
2022/06/12 11:29:51;;;;;;;1.88;1.17;;;25.70;57.10;;;;;;5073647;28;20097;-81
2022/06/12 11:32:57;;;;;;;1.88;1.08;;;25.60;58.20;;;;;;5077239;28;20024;-78
2022/06/12 11:35:50;;;;;;;1.45;1.23;;;25.30;57.30;;;;;;5081844;28;20029;-78
2022/06/12 11:38:52;;;;;;;0.88;0.88;;;24.90;58.50;;;;;;5088221;28;20032;-80
2022/06/12 11:41:34;;;;;;;4.80;1.30;;;24.90;60.90;;;;;;5088660;28;20126;-81
2022/06/12 11:44:34;;;;;;;1.30;1.20;;;25.40;58.90;;;;;;5087448;28;20051;-82
2022/06/12 11:47:33;;;;;;;1.07;1.03;;;26.00;56.50;;;;;;5083557;28;20827;-80
2022/06/12 11:50:12;;;;;;;1.35;1.25;;;26.70;58.50;;;;;;5086715;28;20281;-81
2022/06/12 11:53:03;;;;;;;1.40;1.20;;;26.90;56.50;;;;;;5080199;28;20039;-79
2022/06/12 11:55:41;;;;;;;4.13;1.38;;;27.00;54.80;;;;;;5079759;28;20040;-80
2022/06/12 11:58:24;;;;;;;4.15;1.42;;;26.50;56.10;;;;;;5079825;28;20033;-82
2022/06/12 12:00:56;;;;;;;7.78;1.40;;;26.70;58.80;;;;;;5084146;28;20024;-80
2022/06/12 12:04:02;;;;;;;1.55;1.30;;;27.40;59.70;;;;;;5082860;28;20545;-82
2022/06/12 12:06:49;;;;;;;2.30;1.38;;;28.10;55.10;;;;;;5078059;28;20032;-79
2022/06/12 12:09:57;;;;;;;1.35;1.25;;;27.80;52.80;;;;;;5087978;28;20483;-82
2022/06/12 12:12:29;;;;;;;6.68;1.33;;;28.00;53.40;;;;;;5085694;28;20024;-79
2022/06/12 12:14:58;;;;;;;3.80;1.35;;;27.90;51.80;;;;;;5080692;28;20020;-81
2022/06/12 12:17:38;;;;;;;2.15;1.45;;;27.40;53.10;;;;;;5086754;28;20024;-82
2022/06/12 12:20:18;;;;;;;2.55;1.20;;;27.90;51.10;;;;;;5088063;28;20024;-79
2022/06/12 12:23:02;;;;;;;1.10;1.00;;;28.00;51.10;;;;;;5088110;28;20467;-81
2022/06/12 12:25:41;;;;;;;3.67;1.85;;;28.30;50.50;;;;;;5087955;28;20482;-81
2022/06/12 12:28:34;;;;;;;2.08;1.20;;;27.60;49.90;;;;;;5085000;28;20033;-83
2022/06/12 12:31:03;;;;;;;1.27;1.17;;;26.50;53.60;;;;;;5082311;28;20020;-81
2022/06/12 12:33:30;;;;;;;2.70;1.20;;;26.50;54.60;;;;;;5080318;28;20028;-82
2022/06/12 12:41:52;;;;;;;1.10;0.90;;;29.50;48.10;;;;;;5086452;28;20081;-80
2022/06/12 12:44:39;;;;;;;4.07;1.45;;;29.20;47.00;;;;;;5082402;28;20032;-78
2022/06/12 12:47:18;;;;;;;5.15;1.30;;;29.10;50.00;;;;;;5083946;28;20114;-82
2022/06/12 12:49:43;;;;;;;2.17;1.40;;;29.20;47.80;;;;;;5077618;28;20051;-81
2022/06/12 12:52:12;;;;;;;5.10;1.30;;;29.30;48.50;;;;;;5088241;28;20020;-80
2022/06/12 12:55:05;;;;;;;3.42;1.15;;;31.10;45.00;;;;;;5079277;28;20082;-81
2022/06/12 12:57:37;;;;;;;2.50;1.42;;;32.10;43.90;;;;;;5070128;28;20129;-80
2022/06/12 13:00:20;;;;;;;1.73;1.50;;;33.20;42.50;;;;;;5077106;28;20130;-82
2022/06/12 13:02:54;;;;;;;1.70;1.50;;;34.30;44.70;;;;;;5084639;28;20059;-82
2022/06/12 13:05:23;;;;;;;1.23;1.13;;;35.60;37.50;;;;;;5087842;28;20024;-81
2022/06/12 13:08:26;;;;;;;2.17;1.58;;;36.10;35.60;;;;;;5078096;28;20032;-82
2022/06/12 13:10:54;;;;;;;2.65;1.00;;;36.70;36.20;;;;;;5080358;28;20031;-83
2022/06/12 13:13:31;;;;;;;0.88;0.88;;;35.90;35.90;;;;;;5081149;28;20032;-83
2022/06/12 13:16:24;;;;;;;1.10;1.00;;;36.30;35.90;;;;;;5083066;28;20035;-80
2022/06/12 13:19:17;;;;;;;2.30;0.98;;;35.20;34.80;;;;;;5075040;28;20028;-81
2022/06/12 13:21:54;;;;;;;1.98;1.10;;;35.50;35.50;;;;;;5080449;28;20093;-79
2022/06/12 13:24:42;;;;;;;1.45;0.90;;;35.70;36.40;;;;;;5077649;28;20494;-81
2022/06/12 13:27:20;;;;;;;6.35;1.00;;;35.70;34.90;;;;;;5080992;28;20146;-82
2022/06/12 13:29:47;;;;;;;1.10;1.00;;;37.60;35.10;;;;;;5077246;28;20211;-84
2022/06/12 13:32:31;;;;;;;1.35;0.90;;;38.60;32.50;;;;;;5077858;28;20667;-83
2022/06/12 13:35:04;;;;;;;1.73;1.17;;;35.10;34.40;;;;;;5077879;28;20028;-83
2022/06/12 13:37:36;;;;;;;3.72;1.33;;;36.60;33.50;;;;;;5069189;28;20039;-80
2022/06/12 13:40:20;;;;;;;1.92;1.05;;;38.40;32.90;;;;;;5078632;28;20038;-81
2022/06/12 13:42:46;;;;;;;2.83;1.02;;;36.50;31.80;;;;;;5080518;28;20028;-79
2022/06/12 13:45:20;;;;;;;1.05;1.00;;;36.80;31.50;;;;;;5081150;28;20120;-78